Time;durP1;ratioP1;P1;durP2;ratioP2;P2;SDS_P1;SDS_P2;PMS_P1;PMS_P2;Temp;Humidity;BMP_temperature;BMP_pressure;BME280_temperature;BME280_humidity;BME280_pressure;Samples;Min_cycle;Max_cycle;Signal;HPM_P1;HPM_P2
2023/05/03 00:00:22;;;;;;;;;;;16.00;67.10;;;;;;5117632;28;19923;-85
2023/05/03 00:02:48;;;;;;;;;;;15.90;67.00;;;;;;5099688;28;20288;-84
2023/05/03 00:05:13;;;;;;;;;;;16.00;67.10;;;;;;5099583;28;20268;-85
2023/05/03 00:07:43;;;;;;;;;;;15.90;67.10;;;;;;5116932;28;19909;-85
2023/05/03 00:10:12;;;;;;;;;;;15.90;67.10;;;;;;5134326;27;20009;-84
2023/05/03 00:12:38;;;;;;;;;;;15.90;67.00;;;;;;5098982;28;19939;-85
2023/05/03 00:15:04;;;;;;;;;;;15.90;67.10;;;;;;5327672;22;19935;-86
2023/05/03 00:17:29;;;;;;;;;;;15.90;67.20;;;;;;5055256;28;19920;-85
2023/05/03 00:19:55;;;;;;;;;;;15.80;67.20;;;;;;5056333;28;20224;-85
2023/05/03 00:22:21;;;;;;;;;;;15.80;67.20;;;;;;5072441;28;20173;-84
2023/05/03 00:24:48;;;;;;;;;;;15.80;67.10;;;;;;5055680;28;19919;-85
2023/05/03 00:27:13;;;;;;;;;;;15.80;67.20;;;;;;5055923;28;19977;-85
2023/05/03 00:29:39;;;;;;;;;;;15.80;67.10;;;;;;5057779;28;20053;-85
2023/05/03 00:32:05;;;;;;;;;;;15.80;67.10;;;;;;5056932;28;20143;-84
2023/05/03 00:34:30;;;;;;;;;;;15.80;67.20;;;;;;5056518;28;19919;-85
2023/05/03 00:36:56;;;;;;;;;;;15.70;67.30;;;;;;5056458;28;19973;-85
2023/05/03 00:39:21;;;;;;;;;;;15.70;67.20;;;;;;5056419;28;19958;-84
2023/05/03 00:41:47;;;;;;;;;;;15.70;67.20;;;;;;5091068;28;20212;-84
2023/05/03 00:44:13;;;;;;;;;;;15.80;67.30;;;;;;5092442;28;20034;-84
2023/05/03 00:46:39;;;;;;;;;;;15.70;67.30;;;;;;5079518;28;20025;-84
2023/05/03 00:49:05;;;;;;;;;;;15.70;67.30;;;;;;5078597;28;19947;-85
2023/05/03 00:51:30;;;;;;;;;;;15.70;67.20;;;;;;5079750;28;20205;-85
2023/05/03 00:53:56;;;;;;;;;;;15.70;67.20;;;;;;5096550;28;19909;-85
2023/05/03 00:56:22;;;;;;;;;;;15.70;67.30;;;;;;5076340;28;19913;-85
2023/05/03 00:58:49;;;;;;;;;;;15.70;67.30;;;;;;5072954;28;19909;-85
2023/05/03 01:01:16;;;;;;;;;;;15.60;67.30;;;;;;5072657;28;20212;-84
2023/05/03 01:03:42;;;;;;;;;;;15.60;67.30;;;;;;5056104;28;19921;-84
2023/05/03 01:06:12;;;;;;;;;;;15.60;67.40;;;;;;5056162;28;19925;-84
2023/05/03 01:08:48;;;;;;;;;;;15.60;67.30;;;;;;5058345;28;20199;-84
2023/05/03 01:11:36;;;;;;;;;;;15.60;67.30;;;;;;5059132;28;19968;-84
2023/05/03 01:14:09;;;;;;;;;;;15.60;67.20;;;;;;5060933;28;19970;-84
2023/05/03 01:16:53;;;;;;;;;;;15.60;67.40;;;;;;5060324;28;20210;-84
2023/05/03 01:19:33;;;;;;;;;;;15.60;67.20;;;;;;5085298;28;19919;-84
2023/05/03 01:22:11;;;;;;;;;;;15.50;67.30;;;;;;5061640;28;20014;-84
2023/05/03 01:24:38;;;;;;;;;;;15.50;67.30;;;;;;5077815;28;20316;-84
2023/05/03 01:27:04;;;;;;;;;;;15.50;67.30;;;;;;5061552;28;19913;-83
2023/05/03 01:29:30;;;;;;;;;;;15.50;67.20;;;;;;5060426;28;20323;-84
2023/05/03 01:32:00;;;;;;;;;;;15.50;67.20;;;;;;5061376;28;19918;-84
2023/05/03 01:34:45;;;;;;;;;;;15.50;67.30;;;;;;5060808;28;20256;-84
2023/05/03 01:37:12;;;;;;;;;;;15.50;67.30;;;;;;5050435;28;19909;-84
2023/05/03 01:40:10;;;;;;;;;;;15.50;67.40;;;;;;5078201;28;19935;-84
2023/05/03 01:42:37;;;;;;;;;;;15.40;67.30;;;;;;5028410;28;20184;-84
2023/05/03 01:45:03;;;;;;;;;;;15.40;67.30;;;;;;5059923;28;20518;-85
2023/05/03 01:47:29;;;;;;;;;;;15.40;67.30;;;;;;5058817;28;19962;-84
2023/05/03 01:49:55;;;;;;;;;;;15.40;67.30;;;;;;5057847;28;19952;-84
2023/05/03 01:52:21;;;;;;;;;;;15.40;67.30;;;;;;5058475;28;19908;-85
2023/05/03 01:54:47;;;;;;;;;;;15.40;67.20;;;;;;5058813;28;19915;-85
2023/05/03 01:57:13;;;;;;;;;;;15.40;67.30;;;;;;5092390;28;19909;-84
2023/05/03 01:59:38;;;;;;;;;;;15.40;67.30;;;;;;5060022;28;19919;-84
2023/05/03 02:02:04;;;;;;;;;;;15.30;67.30;;;;;;5060426;28;20315;-85
2023/05/03 02:04:29;;;;;;;;;;;15.30;67.20;;;;;;5095108;28;19973;-85
2023/05/03 02:06:55;;;;;;;;;;;15.30;67.20;;;;;;5061717;28;19947;-85
2023/05/03 02:09:21;;;;;;;;;;;15.30;67.20;;;;;;5059124;28;19913;-84
2023/05/03 02:11:47;;;;;;;;;;;15.30;67.30;;;;;;5058284;28;19909;-85
2023/05/03 02:14:12;;;;;;;;;;;15.30;67.20;;;;;;5078188;28;19916;-84
2023/05/03 02:16:38;;;;;;;;;;;15.30;67.30;;;;;;5061011;28;20399;-85
2023/05/03 02:19:04;;;;;;;;;;;15.30;67.30;;;;;;5093297;28;19909;-85
2023/05/03 02:21:30;;;;;;;;;;;15.30;67.30;;;;;;5061029;28;20239;-85
2023/05/03 02:23:55;;;;;;;;;;;15.30;67.30;;;;;;5061075;28;20006;-85
2023/05/03 02:26:21;;;;;;;;;;;15.20;67.20;;;;;;5078348;28;19998;-85
2023/05/03 02:28:47;;;;;;;;;;;15.20;67.20;;;;;;5076582;28;19939;-85
2023/05/03 02:31:12;;;;;;;;;;;15.20;67.20;;;;;;5059997;28;20188;-84
2023/05/03 02:33:38;;;;;;;;;;;15.20;67.30;;;;;;5092050;28;20276;-84
2023/05/03 02:36:04;;;;;;;;;;;15.20;67.30;;;;;;5059577;28;19908;-83
2023/05/03 02:38:30;;;;;;;;;;;15.20;67.30;;;;;;5059423;28;20356;-85
2023/05/03 02:40:55;;;;;;;;;;;15.10;67.20;;;;;;5059442;28;20019;-84
2023/05/03 02:43:21;;;;;;;;;;;15.10;67.30;;;;;;5093100;28;20015;-84
2023/05/03 02:45:47;;;;;;;;;;;15.10;67.30;;;;;;5057253;28;19966;-85
2023/05/03 02:48:13;;;;;;;;;;;15.10;67.20;;;;;;5057092;28;19920;-85
2023/05/03 02:50:38;;;;;;;;;;;15.10;67.20;;;;;;5059090;28;19924;-85
2023/05/03 02:53:04;;;;;;;;;;;15.10;67.20;;;;;;5092827;28;19930;-84
2023/05/03 02:55:30;;;;;;;;;;;15.10;67.20;;;;;;5093768;28;19908;-84
2023/05/03 02:57:56;;;;;;;;;;;15.10;67.10;;;;;;5059269;28;19908;-85
2023/05/03 03:00:21;;;;;;;;;;;15.10;67.20;;;;;;5060654;28;19904;-85
2023/05/03 03:02:47;;;;;;;;;;;15.10;67.20;;;;;;5077513;28;19912;-84
2023/05/03 03:05:13;;;;;;;;;;;15.00;67.90;;;;;;5092807;28;20205;-85
2023/05/03 03:07:39;;;;;;;;;;;15.00;67.30;;;;;;5058062;28;19916;-84
2023/05/03 03:10:05;;;;;;;;;;;15.00;67.30;;;;;;5057410;28;20274;-85
2023/05/03 03:12:32;;;;;;;;;;;15.00;67.30;;;;;;5057951;28;19944;-84
2023/05/03 03:14:57;;;;;;;;;;;15.00;67.40;;;;;;5057444;28;20409;-85
2023/05/03 03:17:23;;;;;;;;;;;15.00;67.40;;;;;;5056087;28;19999;-85
2023/05/03 03:19:49;;;;;;;;;;;15.00;67.40;;;;;;5057013;28;19948;-84
2023/05/03 03:22:14;;;;;;;;;;;14.90;67.30;;;;;;5056501;28;19912;-84
2023/05/03 03:24:40;;;;;;;;;;;14.90;67.30;;;;;;5058204;28;19929;-84
2023/05/03 03:27:06;;;;;;;;;;;14.90;67.20;;;;;;5074518;28;19909;-84
2023/05/03 03:29:31;;;;;;;;;;;14.90;67.30;;;;;;5075384;28;19916;-84
2023/05/03 03:31:57;;;;;;;;;;;14.90;67.30;;;;;;5056276;28;19912;-84
2023/05/03 03:34:23;;;;;;;;;;;14.90;67.30;;;;;;5076575;28;20219;-84
2023/05/03 03:36:49;;;;;;;;;;;14.90;67.30;;;;;;5058797;28;19915;-84
2023/05/03 03:39:14;;;;;;;;;;;14.80;67.30;;;;;;5074453;28;20261;-85
2023/05/03 03:41:40;;;;;;;;;;;14.80;67.30;;;;;;5058405;28;19909;-84
2023/05/03 03:44:06;;;;;;;;;;;14.80;67.20;;;;;;5057049;28;19913;-84
2023/05/03 03:46:31;;;;;;;;;;;14.80;67.30;;;;;;5076446;28;19919;-84
2023/05/03 03:48:57;;;;;;;;;;;14.80;67.20;;;;;;5090441;28;19973;-84
2023/05/03 03:51:22;;;;;;;;;;;14.80;67.20;;;;;;5089605;28;19947;-84
2023/05/03 03:53:50;;;;;;;;;;;14.80;67.20;;;;;;5058220;28;20800;-84
2023/05/03 03:56:16;;;;;;;;;;;14.80;67.20;;;;;;5058286;28;19915;-84
2023/05/03 03:58:41;;;;;;;;;;;14.80;67.30;;;;;;5057545;28;20134;-84
2023/05/03 04:01:07;;;;;;;;;;;14.80;67.30;;;;;;5054991;28;20152;-84
2023/05/03 04:03:32;;;;;;;;;;;14.70;67.10;;;;;;5056340;28;20421;-84
2023/05/03 04:05:58;;;;;;;;;;;14.80;67.30;;;;;;5055752;28;19917;-84
2023/05/03 04:08:24;;;;;;;;;;;14.70;67.10;;;;;;5089420;28;19908;-85
2023/05/03 04:10:50;;;;;;;;;;;14.70;67.10;;;;;;5056865;28;20333;-84
2023/05/03 04:13:15;;;;;;;;;;;14.70;67.10;;;;;;5073422;28;19912;-84
2023/05/03 04:15:41;;;;;;;;;;;14.70;67.00;;;;;;5055433;28;19973;-84
2023/05/03 04:18:07;;;;;;;;;;;14.70;66.90;;;;;;5054350;28;20280;-84
2023/05/03 04:20:33;;;;;;;;;;;14.70;67.00;;;;;;5070920;28;19991;-84
2023/05/03 04:22:59;;;;;;;;;;;14.70;66.90;;;;;;5054311;28;20003;-84
2023/05/03 04:25:25;;;;;;;;;;;14.70;66.90;;;;;;5055468;28;20164;-84
2023/05/03 04:27:51;;;;;;;;;;;14.70;66.80;;;;;;5053925;28;20157;-84
2023/05/03 04:30:16;;;;;;;;;;;14.70;66.80;;;;;;5051922;28;20247;-83
2023/05/03 04:32:42;;;;;;;;;;;14.70;66.70;;;;;;5053153;28;20266;-84
2023/05/03 04:35:09;;;;;;;;;;;14.70;66.70;;;;;;5051868;28;20056;-83
2023/05/03 04:37:39;;;;;;;;;;;14.70;66.60;;;;;;5052175;28;19908;-84
2023/05/03 04:40:08;;;;;;;;;;;14.70;66.50;;;;;;5051685;28;19917;-84
2023/05/03 04:42:34;;;;;;;;;;;14.70;66.50;;;;;;5052229;28;19916;-84
2023/05/03 04:45:01;;;;;;;;;;;14.70;66.40;;;;;;5052202;28;20075;-84
2023/05/03 04:47:27;;;;;;;;;;;14.70;66.40;;;;;;5086236;28;19917;-84
2023/05/03 04:49:53;;;;;;;;;;;14.70;66.40;;;;;;5053542;28;20129;-84
2023/05/03 04:52:18;;;;;;;;;;;14.70;66.40;;;;;;5054216;28;19908;-84
2023/05/03 04:54:44;;;;;;;;;;;14.70;66.20;;;;;;5069948;28;19909;-83
2023/05/03 04:57:10;;;;;;;;;;;14.70;66.20;;;;;;5052214;28;19947;-84
2023/05/03 04:59:36;;;;;;;;;;;14.80;66.20;;;;;;5052992;28;19908;-83
2023/05/03 05:02:01;;;;;;;;;;;14.80;66.20;;;;;;5087655;28;19966;-84
2023/05/03 05:04:27;;;;;;;;;;;14.80;66.20;;;;;;5068944;28;19924;-84
2023/05/03 05:06:53;;;;;;;;;;;14.80;66.20;;;;;;5084913;28;19920;-84
2023/05/03 05:09:24;;;;;;;;;;;14.80;66.40;;;;;;5051601;28;20187;-84
2023/05/03 05:11:50;;;;;;;;;;;14.90;66.40;;;;;;5057070;28;19909;-84
2023/05/03 05:14:16;;;;;;;;;;;14.90;66.70;;;;;;5056233;28;20353;-84
2023/05/03 05:16:41;;;;;;;;;;;15.00;66.90;;;;;;5075111;28;19917;-84
2023/05/03 05:19:07;;;;;;;;;;;15.00;67.10;;;;;;5052778;28;19948;-84
2023/05/03 05:21:33;;;;;;;;;;;15.10;67.60;;;;;;5053052;28;20256;-84
2023/05/03 05:23:59;;;;;;;;;;;15.10;67.10;;;;;;5031494;28;20155;-84
2023/05/03 05:26:26;;;;;;;;;;;15.20;67.20;;;;;;5031124;28;20420;-84
2023/05/03 05:28:51;;;;;;;;;;;15.30;67.10;;;;;;5030759;28;20000;-84
2023/05/03 05:31:17;;;;;;;;;;;15.40;66.60;;;;;;5032910;28;20389;-84
2023/05/03 05:33:43;;;;;;;;;;;15.50;66.10;;;;;;5052577;28;19973;-84
2023/05/03 05:36:08;;;;;;;;;;;15.60;65.60;;;;;;5033205;28;20139;-84
2023/05/03 05:38:34;;;;;;;;;;;15.70;64.80;;;;;;5033871;28;19913;-84
2023/05/03 05:41:00;;;;;;;;;;;15.80;64.30;;;;;;5048238;28;19919;-84
2023/05/03 05:43:25;;;;;;;;;;;15.90;63.80;;;;;;5030958;28;20261;-84
2023/05/03 05:45:51;;;;;;;;;;;16.00;63.30;;;;;;5031590;28;20055;-84
2023/05/03 05:48:16;;;;;;;;;;;16.10;62.40;;;;;;5033429;28;19925;-84
2023/05/03 05:50:42;;;;;;;;;;;16.20;62.00;;;;;;5032026;28;20007;-84
2023/05/03 05:53:08;;;;;;;;;;;16.20;61.80;;;;;;5033897;28;19982;-84
2023/05/03 05:55:34;;;;;;;;;;;16.30;61.20;;;;;;5049391;28;20201;-84
2023/05/03 05:58:00;;;;;;;;;;;16.40;61.00;;;;;;5048072;28;19955;-84
2023/05/03 06:00:25;;;;;;;;;;;16.50;60.40;;;;;;5030022;28;19908;-84
2023/05/03 06:02:51;;;;;;;;;;;16.60;59.90;;;;;;5030736;28;19913;-84
2023/05/03 06:05:16;;;;;;;;;;;16.70;59.90;;;;;;5030154;28;19913;-84
2023/05/03 06:07:42;;;;;;;;;;;16.80;59.80;;;;;;5032452;28;19915;-84
2023/05/03 06:10:08;;;;;;;;;;;16.80;59.50;;;;;;5033225;28;20004;-84
2023/05/03 06:12:35;;;;;;;;;;;16.90;59.50;;;;;;5050300;28;19920;-84
2023/05/03 06:15:01;;;;;;;;;;;17.00;59.20;;;;;;5048019;28;20012;-84
2023/05/03 06:17:26;;;;;;;;;;;17.10;59.40;;;;;;5030284;28;20011;-84
2023/05/03 06:19:52;;;;;;;;;;;17.30;58.90;;;;;;5030472;28;19908;-83
2023/05/03 06:22:17;;;;;;;;;;;17.40;58.70;;;;;;5046839;28;19955;-83
2023/05/03 06:24:43;;;;;;;;;;;17.50;58.50;;;;;;5047489;28;19920;-84
2023/05/03 06:27:09;;;;;;;;;;;17.60;58.10;;;;;;5029131;28;20296;-84
2023/05/03 06:29:34;;;;;;;;;;;17.80;58.00;;;;;;5029648;28;20145;-83
2023/05/03 06:32:01;;;;;;;;;;;17.90;57.40;;;;;;5032133;28;20255;-83
2023/05/03 06:34:27;;;;;;;;;;;18.20;57.50;;;;;;5032566;28;19909;-84
2023/05/03 06:36:52;;;;;;;;;;;18.40;57.20;;;;;;5033156;28;19909;-84
2023/05/03 06:39:18;;;;;;;;;;;18.80;56.80;;;;;;5051275;28;19919;-84
2023/05/03 06:41:43;;;;;;;;;;;19.20;56.30;;;;;;5032657;28;20003;-84
2023/05/03 06:44:09;;;;;;;;;;;19.50;55.70;;;;;;5032799;28;20031;-84
2023/05/03 06:46:35;;;;;;;;;;;19.80;55.20;;;;;;5033326;28;19940;-83
2023/05/03 06:49:00;;;;;;;;;;;20.10;54.50;;;;;;5034559;28;19921;-83
2023/05/03 06:51:27;;;;;;;;;;;20.50;54.00;;;;;;5050981;28;19908;-84
2023/05/03 06:53:56;;;;;;;;;;;20.80;53.30;;;;;;5048856;28;19975;-84
2023/05/03 06:56:22;;;;;;;;;;;21.10;52.70;;;;;;5031198;28;19909;-83
2023/05/03 06:58:48;;;;;;;;;;;21.40;52.20;;;;;;5029469;28;19917;-83
2023/05/03 07:01:14;;;;;;;;;;;21.70;51.50;;;;;;5031073;28;19913;-83
2023/05/03 07:03:40;;;;;;;;;;;22.10;51.10;;;;;;5028765;28;20312;-84
2023/05/03 07:06:06;;;;;;;;;;;22.30;50.70;;;;;;5028980;28;19948;-84
2023/05/03 07:08:31;;;;;;;;;;;22.50;50.20;;;;;;5048762;28;19982;-84
2023/05/03 07:10:57;;;;;;;;;;;22.80;49.80;;;;;;5037237;28;20135;-83
2023/05/03 07:13:22;;;;;;;;;;;23.00;49.50;;;;;;5032089;28;19908;-84
2023/05/03 07:15:48;;;;;;;;;;;23.20;49.20;;;;;;5032459;28;19913;-84
2023/05/03 07:18:14;;;;;;;;;;;23.40;49.00;;;;;;5033262;28;20350;-84
2023/05/03 07:20:39;;;;;;;;;;;23.60;48.50;;;;;;5034739;28;19951;-84
2023/05/03 07:23:06;;;;;;;;;;;23.90;48.10;;;;;;5050207;28;19920;-84
2023/05/03 07:25:32;;;;;;;;;;;24.00;47.70;;;;;;5031456;28;20032;-84
2023/05/03 07:27:57;;;;;;;;;;;24.20;47.50;;;;;;5047524;28;19916;-84
2023/05/03 07:30:23;;;;;;;;;;;24.40;47.20;;;;;;5032594;28;20147;-84
2023/05/03 07:32:49;;;;;;;;;;;24.60;47.00;;;;;;5031202;28;19941;-84
2023/05/03 07:35:15;;;;;;;;;;;24.60;46.70;;;;;;5049276;28;19959;-84
2023/05/03 07:37:41;;;;;;;;;;;24.80;46.50;;;;;;5032362;28;19971;-84
2023/05/03 07:40:08;;;;;;;;;;;24.90;46.30;;;;;;5029209;28;19909;-84
2023/05/03 07:42:34;;;;;;;;;;;24.90;46.10;;;;;;5066209;28;20684;-84
2023/05/03 07:45:00;;;;;;;;;;;25.00;45.90;;;;;;5056705;28;20138;-85
2023/05/03 07:47:26;;;;;;;;;;;25.30;45.80;;;;;;5039120;28;19941;-83
2023/05/03 07:49:52;;;;;;;;;;;24.50;45.60;;;;;;5055339;28;19908;-84
2023/05/03 07:52:18;;;;;;;;;;;23.70;46.30;;;;;;5055681;28;19919;-83
2023/05/03 07:54:44;;;;;;;;;;;23.40;46.90;;;;;;5057015;28;20011;-84
2023/05/03 07:57:12;;;;;;;;;;;23.70;47.10;;;;;;5056810;28;19919;-83
2023/05/03 07:59:37;;;;;;;;;;;24.00;46.70;;;;;;5058667;28;19909;-83
2023/05/03 08:02:03;;;;;;;;;;;23.90;46.70;;;;;;5056728;28;19909;-84
2023/05/03 08:04:28;;;;;;;;;;;23.60;46.50;;;;;;5075250;28;20339;-84
2023/05/03 08:06:54;;;;;;;;;;;23.90;46.90;;;;;;5056988;28;19909;-84
2023/05/03 08:09:20;;;;;;;;;;;24.80;46.30;;;;;;5056892;28;20190;-84
2023/05/03 08:11:45;;;;;;;;;;;25.40;45.60;;;;;;5051057;28;19912;-84
2023/05/03 08:14:11;;;;;;;;;;;25.90;45.20;;;;;;5048624;28;19955;-84
2023/05/03 08:16:37;;;;;;;;;;;25.80;44.80;;;;;;5049828;28;20158;-83
2023/05/03 08:19:03;;;;;;;;;;;25.80;44.70;;;;;;5048878;28;19936;-84
2023/05/03 08:21:29;;;;;;;;;;;26.20;44.60;;;;;;5046519;28;19908;-83
2023/05/03 08:23:55;;;;;;;;;;;26.20;44.30;;;;;;5049446;28;19960;-84
2023/05/03 08:26:21;;;;;;;;;;;26.20;44.10;;;;;;5064691;28;19958;-84
2023/05/03 08:28:46;;;;;;;;;;;26.70;44.00;;;;;;5049044;28;19936;-84
2023/05/03 08:31:12;;;;;;;;;;;27.10;43.60;;;;;;5046224;28;19913;-84
2023/05/03 08:33:38;;;;;;;;;;;27.40;43.40;;;;;;5050517;28;19921;-85
2023/05/03 08:36:04;;;;;;;;;;;27.60;43.10;;;;;;5056790;28;19920;-83
2023/05/03 08:38:30;;;;;;;;;;;27.80;42.80;;;;;;5089059;28;19909;-84
2023/05/03 08:40:57;;;;;;;;;;;28.00;42.70;;;;;;5073823;28;19909;-84
2023/05/03 08:43:24;;;;;;;;;;;28.10;42.40;;;;;;5055968;28;19923;-83
2023/05/03 08:45:50;;;;;;;;;;;28.30;42.30;;;;;;5056506;28;20285;-84
2023/05/03 08:48:15;;;;;;;;;;;28.50;42.20;;;;;;5074314;28;19908;-84
2023/05/03 08:50:41;;;;;;;;;;;28.60;42.00;;;;;;5056741;28;19981;-84
2023/05/03 08:53:07;;;;;;;;;;;28.70;41.90;;;;;;5057156;28;20197;-84
2023/05/03 08:55:33;;;;;;;;;;;28.80;41.60;;;;;;5055316;28;19921;-84
2023/05/03 08:57:59;;;;;;;;;;;28.90;41.60;;;;;;5055709;28;19913;-83
2023/05/03 09:00:30;;;;;;;;;;;29.00;41.50;;;;;;5056615;28;20049;-84
2023/05/03 09:02:57;;;;;;;;;;;29.10;41.30;;;;;;5055718;28;20483;-85
2023/05/03 09:05:24;;;;;;;;;;;29.10;41.20;;;;;;5056846;28;19908;-84
2023/05/03 09:08:03;;;;;;;;;;;29.20;41.10;;;;;;5058040;28;19935;-84
2023/05/03 09:10:29;;;;;;;;;;;29.30;41.00;;;;;;5076135;28;19917;-84
2023/05/03 09:13:02;;;;;;;;;;;29.30;40.90;;;;;;5058390;28;19915;-84
2023/05/03 09:15:29;;;;;;;;;;;29.50;40.80;;;;;;5058296;28;20505;-86
2023/05/03 09:18:07;;;;;;;;;;;29.60;40.70;;;;;;5056910;28;20305;-84
2023/05/03 09:20:33;;;;;;;;;;;29.70;40.50;;;;;;5058673;28;19977;-84
2023/05/03 09:23:00;;;;;;;;;;;29.80;40.40;;;;;;5075325;28;19916;-83
2023/05/03 09:25:38;;;;;;;;;;;29.80;40.30;;;;;;5060942;28;19912;-87
2023/05/03 09:28:04;;;;;;;;;;;29.80;40.20;;;;;;5068013;28;19912;-84
2023/05/03 09:30:30;;;;;;;;;;;29.90;39.90;;;;;;5090534;28;19909;-86
2023/05/03 09:32:55;;;;;;;;;;;30.10;39.80;;;;;;5058322;28;19955;-85
2023/05/03 09:35:21;;;;;;;;;;;30.20;39.60;;;;;;5075582;28;19908;-84
2023/05/03 09:37:48;;;;;;;;;;;30.30;39.40;;;;;;5089854;28;20480;-85
2023/05/03 09:40:17;;;;;;;;;;;30.30;39.30;;;;;;5058421;28;19912;-85
2023/05/03 09:43:01;;;;;;;;;;;30.40;39.30;;;;;;5073175;28;19912;-86
2023/05/03 09:45:30;;;;;;;;;;;30.50;39.00;;;;;;5090502;28;19908;-85
2023/05/03 09:47:56;;;;;;;;;;;30.60;38.90;;;;;;5057657;28;20417;-84
2023/05/03 09:50:21;;;;;;;;;;;30.70;38.70;;;;;;5058769;28;19908;-83
2023/05/03 09:52:47;;;;;;;;;;;30.70;38.80;;;;;;5092113;28;19909;-84
2023/05/03 09:55:15;;;;;;;;;;;30.60;38.80;;;;;;5057165;28;19908;-84
2023/05/03 09:57:42;;;;;;;;;;;30.60;38.50;;;;;;5068994;28;19908;-84
2023/05/03 10:00:09;;;;;;;;;;;30.60;38.70;;;;;;5068177;28;19913;-84
2023/05/03 10:02:35;;;;;;;;;;;30.40;38.50;;;;;;5048322;28;20197;-84
2023/05/03 10:05:02;;;;;;;;;;;30.10;38.80;;;;;;5047811;28;20324;-84
2023/05/03 10:07:28;;;;;;;;;;;29.70;39.00;;;;;;5049280;28;20317;-86
2023/05/03 10:09:55;;;;;;;;;;;29.00;39.30;;;;;;5066720;28;20316;-84
2023/05/03 10:12:21;;;;;;;;;;;28.20;39.60;;;;;;5047774;28;19995;-85
2023/05/03 10:14:48;;;;;;;;;;;27.20;39.80;;;;;;5047789;28;19913;-83
2023/05/03 10:17:22;;;;;;;;;;;26.40;40.40;;;;;;5051104;28;19920;-84
2023/05/03 10:19:47;;;;;;;;;;;25.60;41.10;;;;;;5049083;28;19951;-84
2023/05/03 10:22:13;;;;;;;;;;;25.00;41.70;;;;;;5051218;28;20321;-85
2023/05/03 10:25:06;;;;;;;;;;;24.50;42.10;;;;;;5048106;28;20139;-86
2023/05/03 10:27:40;;;;;;;;;;;24.10;42.20;;;;;;5051418;28;20085;-84
2023/05/03 10:30:08;;;;;;;;;;;23.70;42.60;;;;;;5068789;28;20339;-83
2023/05/03 10:32:34;;;;;;;;;;;23.50;43.50;;;;;;5050188;28;20096;-85
2023/05/03 10:35:02;;;;;;;;;;;23.30;43.40;;;;;;5070836;28;20323;-84
2023/05/03 10:37:27;;;;;;;;;;;23.00;43.40;;;;;;5050265;28;19917;-85
2023/05/03 10:39:53;;;;;;;;;;;22.90;43.90;;;;;;5051605;28;19915;-84
2023/05/03 10:42:24;;;;;;;;;;;22.70;44.10;;;;;;5050261;28;19908;-85
2023/05/03 10:44:51;;;;;;;;;;;22.60;44.10;;;;;;5049111;28;19909;-84
2023/05/03 10:47:17;;;;;;;;;;;22.50;44.10;;;;;;5049619;28;20033;-83
2023/05/03 10:49:43;;;;;;;;;;;22.30;44.40;;;;;;5049117;28;20090;-84
2023/05/03 10:52:28;;;;;;;;;;;22.20;44.50;;;;;;5048476;28;20143;-83
2023/05/03 10:54:54;;;;;;;;;;;22.10;44.70;;;;;;5049087;28;19912;-83
2023/05/03 10:57:20;;;;;;;;;;;22.00;44.80;;;;;;5067858;28;19924;-83
2023/05/03 10:59:53;;;;;;;;;;;21.90;45.00;;;;;;5050993;28;19940;-84
2023/05/03 11:02:30;;;;;;;;;;;21.80;45.10;;;;;;5055056;28;19912;-84
2023/05/03 11:04:58;;;;;;;;;;;21.70;44.90;;;;;;5058218;28;19951;-84
2023/05/03 11:07:24;;;;;;;;;;;21.60;45.00;;;;;;5058165;28;19952;-83
2023/05/03 11:09:51;;;;;;;;;;;21.60;45.30;;;;;;5056664;28;19908;-83
2023/05/03 11:12:16;;;;;;;;;;;21.50;45.50;;;;;;5075173;28;19920;-83
2023/05/03 11:14:42;;;;;;;;;;;21.40;45.60;;;;;;5066068;28;19908;-83
2023/05/03 11:17:08;;;;;;;;;;;21.40;45.50;;;;;;5066250;28;19916;-83
2023/05/03 11:19:34;;;;;;;;;;;21.30;45.70;;;;;;5047710;28;19911;-83
2023/05/03 11:22:00;;;;;;;;;;;21.20;45.90;;;;;;5047993;28;20412;-83
2023/05/03 11:24:26;;;;;;;;;;;21.20;46.10;;;;;;5046790;28;19963;-84
2023/05/03 11:26:52;;;;;;;;;;;21.10;45.90;;;;;;5046747;28;20179;-83
2023/05/03 11:29:18;;;;;;;;;;;21.10;46.10;;;;;;5066513;28;19909;-84
2023/05/03 11:31:43;;;;;;;;;;;21.00;45.90;;;;;;5048565;28;19916;-84
2023/05/03 11:34:14;;;;;;;;;;;21.00;46.00;;;;;;5049095;28;19912;-83
2023/05/03 11:36:40;;;;;;;;;;;20.90;46.00;;;;;;5048550;28;19917;-83
2023/05/03 11:39:07;;;;;;;;;;;20.80;46.20;;;;;;5064555;28;19990;-83
2023/05/03 11:41:33;;;;;;;;;;;20.80;46.40;;;;;;5048463;28;19908;-83
2023/05/03 11:43:59;;;;;;;;;;;20.80;46.40;;;;;;5068675;28;19938;-85
2023/05/03 11:46:26;;;;;;;;;;;20.80;46.50;;;;;;5083293;28;19912;-83
2023/05/03 11:48:52;;;;;;;;;;;20.70;46.20;;;;;;5068269;28;20293;-83
2023/05/03 11:51:24;;;;;;;;;;;20.70;46.50;;;;;;5067921;28;20160;-84
2023/05/03 11:53:50;;;;;;;;;;;20.70;46.60;;;;;;5051024;28;19916;-83
2023/05/03 11:56:19;;;;;;;;;;;20.60;46.70;;;;;;5068270;28;19912;-83
2023/05/03 11:58:59;;;;;;;;;;;20.60;46.70;;;;;;5049931;28;20123;-85
2023/05/03 12:01:26;;;;;;;;;;;20.60;46.80;;;;;;5046696;28;19919;-84
2023/05/03 12:03:52;;;;;;;;;;;20.50;47.00;;;;;;5047040;28;20293;-83
2023/05/03 12:06:17;;;;;;;;;;;20.50;47.00;;;;;;5064162;28;20396;-83
2023/05/03 12:08:44;;;;;;;;;;;20.50;47.10;;;;;;5082242;28;19919;-83
2023/05/03 12:11:10;;;;;;;;;;;20.50;47.10;;;;;;5080196;28;20175;-83
2023/05/03 12:13:36;;;;;;;;;;;20.40;47.10;;;;;;5047730;28;19908;-84
2023/05/03 12:16:03;;;;;;;;;;;20.40;47.10;;;;;;5047547;28;19909;-83
2023/05/03 12:18:49;;;;;;;;;;;20.40;47.10;;;;;;5066589;28;19916;-83
2023/05/03 12:21:15;;;;;;;;;;;20.40;47.10;;;;;;5044933;28;20298;-83
2023/05/03 12:23:41;;;;;;;;;;;20.30;47.10;;;;;;5048795;28;20285;-84
2023/05/03 12:26:06;;;;;;;;;;;20.30;47.10;;;;;;5047163;28;19997;-83
2023/05/03 12:28:32;;;;;;;;;;;20.20;47.00;;;;;;5065956;28;19913;-83
2023/05/03 12:30:58;;;;;;;;;;;20.20;47.20;;;;;;5050846;28;19920;-84
2023/05/03 12:33:24;;;;;;;;;;;20.20;47.20;;;;;;5047256;28;19908;-83
2023/05/03 12:35:50;;;;;;;;;;;20.20;47.10;;;;;;5078588;28;19976;-83
2023/05/03 12:38:16;;;;;;;;;;;20.20;47.20;;;;;;5046461;28;19912;-84
2023/05/03 12:40:43;;;;;;;;;;;20.10;47.00;;;;;;5045310;28;19908;-84
2023/05/03 12:43:09;;;;;;;;;;;20.10;47.10;;;;;;5063684;28;20104;-82
2023/05/03 12:45:35;;;;;;;;;;;20.10;47.10;;;;;;5045424;28;19927;-82
2023/05/03 12:48:01;;;;;;;;;;;20.00;47.10;;;;;;5047568;28;20268;-82
2023/05/03 12:50:27;;;;;;;;;;;20.00;47.20;;;;;;5044304;28;19974;-84
2023/05/03 12:52:52;;;;;;;;;;;20.00;47.30;;;;;;5045977;28;19908;-83
2023/05/03 12:55:18;;;;;;;;;;;20.00;47.20;;;;;;5044966;28;19908;-83
2023/05/03 12:57:44;;;;;;;;;;;20.00;47.30;;;;;;5080893;28;20122;-83
2023/05/03 13:00:11;;;;;;;;;;;20.00;47.30;;;;;;5048037;28;19916;-82
2023/05/03 13:02:36;;;;;;;;;;;20.00;47.40;;;;;;5063892;28;20224;-83
2023/05/03 13:05:02;;;;;;;;;;;19.90;47.40;;;;;;5046496;28;20027;-83
2023/05/03 13:07:28;;;;;;;;;;;19.90;47.40;;;;;;5046579;28;19919;-84
2023/05/03 13:09:54;;;;;;;;;;;19.90;47.50;;;;;;5047024;28;20398;-83
2023/05/03 13:12:21;;;;;;;;;;;19.90;47.30;;;;;;5044154;28;20133;-82
2023/05/03 13:14:50;;;;;;;;;;;19.90;47.60;;;;;;5060020;28;20254;-83
2023/05/03 13:17:16;;;;;;;;;;;19.90;47.50;;;;;;5041482;28;19951;-82
2023/05/03 13:19:43;;;;;;;;;;;19.80;47.40;;;;;;5040333;28;20038;-82
2023/05/03 13:22:08;;;;;;;;;;;19.80;47.30;;;;;;5043430;28;19909;-82
2023/05/03 13:24:34;;;;;;;;;;;19.80;47.30;;;;;;5043885;28;19974;-83
2023/05/03 13:27:00;;;;;;;;;;;19.80;47.30;;;;;;5044617;28;19915;-82
2023/05/03 13:29:27;;;;;;;;;;;19.80;47.30;;;;;;5044082;28;19917;-83
2023/05/03 13:31:52;;;;;;;;;;;19.80;47.40;;;;;;5045126;28;20090;-83
2023/05/03 13:34:18;;;;;;;;;;;19.70;47.40;;;;;;5044654;28;19959;-82
2023/05/03 13:36:44;;;;;;;;;;;19.70;47.50;;;;;;5044300;28;20335;-83
2023/05/03 13:39:09;;;;;;;;;;;19.70;47.60;;;;;;5062920;28;19916;-82
2023/05/03 13:41:39;;;;;;;;;;;19.70;47.50;;;;;;5047637;28;20085;-82
2023/05/03 13:44:05;;;;;;;;;;;19.70;47.60;;;;;;5045912;28;20187;-82
2023/05/03 13:46:31;;;;;;;;;;;19.70;47.70;;;;;;5047681;28;20167;-82
2023/05/03 13:48:56;;;;;;;;;;;19.70;47.60;;;;;;5043215;28;20239;-82
2023/05/03 13:51:23;;;;;;;;;;;19.70;47.60;;;;;;5043591;28;20003;-82
2023/05/03 13:53:49;;;;;;;;;;;19.60;47.70;;;;;;5044971;28;19908;-83
2023/05/03 13:56:16;;;;;;;;;;;19.60;47.80;;;;;;5048050;28;20394;-83
2023/05/03 13:58:42;;;;;;;;;;;19.60;47.90;;;;;;5081415;28;19908;-83
2023/05/03 14:01:07;;;;;;;;;;;19.60;47.80;;;;;;5049055;28;19909;-82
2023/05/03 14:03:33;;;;;;;;;;;19.60;47.80;;;;;;5065627;28;19923;-82
2023/05/03 14:05:58;;;;;;;;;;;19.60;47.80;;;;;;5048342;28;19908;-82
2023/05/03 14:08:24;;;;;;;;;;;19.60;48.00;;;;;;5048327;28;20015;-82
2023/05/03 14:10:50;;;;;;;;;;;19.60;47.90;;;;;;5050327;28;20201;-83
2023/05/03 14:13:16;;;;;;;;;;;19.60;48.00;;;;;;5084554;28;19999;-82